TBA9907 ZUCK-ZUBD
Flight info
| Callsign | TBA9907 |
|---|---|
| Flight time | 1h 53m |
| Altitude | 36100 |
| Route | URGEG1Z URGEG W231 WFX/K0833S1160 V69 KDJ W9 DOLGU DOL19A |
| Aircraft | A319/M-SDFGHIRWY/LB1 |
Departure
| Time | 2026-04-24 04:09 |
|---|---|
| Airport | Chongqing Jiangbei International Airport (ZUCK) |
Arrival
| Time | 2026-04-24 06:02 |
|---|---|
| Airport | Qamdo Bangda Airport (ZUBD) |
| Time | Latitude | Longitude | Altitude | Speed | Heading |
|---|---|---|---|---|---|
| 2026-04-24 03:12 | 29.72697 | 106.66059 | 1335 ft | 0 kts | 317° |
| 2026-04-24 03:34 | 29.72697 | 106.66060 | 1335 ft | 0 kts | 317° |
| 2026-04-24 03:53 | 29.72691 | 106.66067 | 1338 ft | 4 kts | 315° |
| 2026-04-24 03:54 | 29.72673 | 106.66090 | 1341 ft | 4 kts | 306° |
| 2026-04-24 03:54 | 29.72659 | 106.66116 | 1334 ft | 4 kts | 292° |
| 2026-04-24 03:54 | 29.72652 | 106.66145 | 1335 ft | 4 kts | 258° |
| 2026-04-24 03:54 | 29.72660 | 106.66161 | 1336 ft | 0 kts | 196° |
| 2026-04-24 03:58 | 29.72656 | 106.66160 | 1336 ft | 1 kts | 196° |
| 2026-04-24 03:58 | 29.72646 | 106.66157 | 1336 ft | 3 kts | 197° |
| 2026-04-24 03:58 | 29.72613 | 106.66145 | 1333 ft | 7 kts | 197° |
| 2026-04-24 03:59 | 29.72554 | 106.66124 | 1333 ft | 11 kts | 197° |
| 2026-04-24 03:59 | 29.72482 | 106.66094 | 1334 ft | 9 kts | 219° |
| 2026-04-24 03:59 | 29.72489 | 106.66025 | 1337 ft | 9 kts | 291° |
| 2026-04-24 03:59 | 29.72507 | 106.65959 | 1337 ft | 8 kts | 286° |
| 2026-04-24 04:00 | 29.72524 | 106.65892 | 1338 ft | 10 kts | 287° |
| 2026-04-24 04:00 | 29.72546 | 106.65812 | 1340 ft | 11 kts | 287° |
| 2026-04-24 04:00 | 29.72570 | 106.65718 | 1344 ft | 13 kts | 287° |
| 2026-04-24 04:00 | 29.72599 | 106.65613 | 1349 ft | 15 kts | 287° |
| 2026-04-24 04:01 | 29.72628 | 106.65499 | 1350 ft | 15 kts | 287° |
| 2026-04-24 04:01 | 29.72659 | 106.65385 | 1352 ft | 16 kts | 287° |
| 2026-04-24 04:01 | 29.72689 | 106.65265 | 1353 ft | 15 kts | 286° |
| 2026-04-24 04:01 | 29.72657 | 106.65201 | 1353 ft | 11 kts | 189° |
| 2026-04-24 04:02 | 29.72569 | 106.65174 | 1353 ft | 15 kts | 198° |
| 2026-04-24 04:02 | 29.72456 | 106.65131 | 1356 ft | 19 kts | 197° |
| 2026-04-24 04:02 | 29.72317 | 106.65081 | 1355 ft | 23 kts | 198° |
| 2026-04-24 04:02 | 29.72165 | 106.65026 | 1357 ft | 23 kts | 197° |
| 2026-04-24 04:03 | 29.72084 | 106.64978 | 1354 ft | 9 kts | 271° |
| 2026-04-24 04:03 | 29.72105 | 106.64910 | 1355 ft | 9 kts | 292° |
| 2026-04-24 04:03 | 29.72116 | 106.64836 | 1355 ft | 9 kts | 236° |
| 2026-04-24 04:03 | 29.72049 | 106.64814 | 1355 ft | 11 kts | 189° |
| 2026-04-24 04:04 | 29.71974 | 106.64791 | 1356 ft | 12 kts | 199° |
| 2026-04-24 04:04 | 29.71890 | 106.64761 | 1355 ft | 14 kts | 196° |
| 2026-04-24 04:04 | 29.71791 | 106.64729 | 1356 ft | 16 kts | 197° |
| 2026-04-24 04:04 | 29.71677 | 106.64688 | 1356 ft | 18 kts | 197° |
| 2026-04-24 04:05 | 29.71547 | 106.64641 | 1357 ft | 20 kts | 198° |
| 2026-04-24 04:05 | 29.71407 | 106.64593 | 1359 ft | 22 kts | 196° |
| 2026-04-24 04:05 | 29.71258 | 106.64542 | 1360 ft | 23 kts | 197° |
| 2026-04-24 04:05 | 29.71105 | 106.64490 | 1357 ft | 23 kts | 197° |
| 2026-04-24 04:06 | 29.70950 | 106.64436 | 1358 ft | 23 kts | 196° |
| 2026-04-24 04:06 | 29.70804 | 106.64388 | 1357 ft | 13 kts | 196° |
| 2026-04-24 04:06 | 29.70741 | 106.64360 | 1358 ft | 10 kts | 227° |
| 2026-04-24 04:06 | 29.70754 | 106.64286 | 1358 ft | 10 kts | 290° |
| 2026-04-24 04:07 | 29.70778 | 106.64203 | 1357 ft | 12 kts | 287° |
| 2026-04-24 04:07 | 29.70815 | 106.64180 | 1357 ft | 7 kts | 17° |
| 2026-04-24 04:07 | 29.70849 | 106.64194 | 1357 ft | 0 kts | 16° |
| 2026-04-24 04:07 | 29.70856 | 106.64196 | 1359 ft | 2 kts | 16° |
| 2026-04-24 04:08 | 29.70889 | 106.64208 | 1359 ft | 17 kts | 16° |
| 2026-04-24 04:08 | 29.71272 | 106.64339 | 1357 ft | 93 kts | 17° |
| 2026-04-24 04:08 | 29.72100 | 106.64626 | 1355 ft | 153 kts | 17° |
| 2026-04-24 04:08 | 29.73196 | 106.64986 | 1779 ft | 167 kts | 15° |
| 2026-04-24 04:09 | 29.74321 | 106.65355 | 2515 ft | 168 kts | 17° |
| 2026-04-24 04:09 | 29.75436 | 106.65744 | 3240 ft | 167 kts | 17° |
| 2026-04-24 04:09 | 29.76547 | 106.66135 | 3934 ft | 167 kts | 17° |
| 2026-04-24 04:09 | 29.77654 | 106.66523 | 4607 ft | 168 kts | 17° |
| 2026-04-24 04:10 | 29.78833 | 106.66936 | 5005 ft | 188 kts | 17° |
| 2026-04-24 04:10 | 29.80158 | 106.67398 | 5322 ft | 210 kts | 17° |
| 2026-04-24 04:10 | 29.81637 | 106.67914 | 5675 ft | 234 kts | 18° |
| 2026-04-24 04:11 | 29.84949 | 106.69068 | 7147 ft | 255 kts | 17° |
| 2026-04-24 04:11 | 29.86661 | 106.69657 | 8056 ft | 259 kts | 16° |
| 2026-04-24 04:11 | 29.88397 | 106.70253 | 8984 ft | 263 kts | 15° |
| 2026-04-24 04:11 | 29.90201 | 106.70598 | 9864 ft | 266 kts | 355° |
| 2026-04-24 04:12 | 29.91990 | 106.70060 | 10629 ft | 268 kts | 332° |
| 2026-04-24 04:12 | 29.93632 | 106.69026 | 11467 ft | 273 kts | 333° |
| 2026-04-24 04:12 | 29.95487 | 106.68242 | 11863 ft | 296 kts | 342° |
| 2026-04-24 04:12 | 29.97529 | 106.67506 | 12173 ft | 320 kts | 342° |
| 2026-04-24 04:13 | 29.99718 | 106.66718 | 12585 ft | 337 kts | 342° |
| 2026-04-24 04:13 | 30.01979 | 106.65908 | 13359 ft | 342 kts | 342° |
| 2026-04-24 04:13 | 30.04262 | 106.65092 | 14194 ft | 345 kts | 342° |
| 2026-04-24 04:13 | 30.06564 | 106.64264 | 14938 ft | 348 kts | 341° |
| 2026-04-24 04:14 | 30.08881 | 106.63429 | 15661 ft | 350 kts | 341° |
| 2026-04-24 04:14 | 30.11218 | 106.62586 | 16393 ft | 353 kts | 341° |
| 2026-04-24 04:14 | 30.13574 | 106.61737 | 17110 ft | 356 kts | 341° |
| 2026-04-24 04:14 | 30.15952 | 106.60883 | 17841 ft | 359 kts | 340° |
| 2026-04-24 04:15 | 30.18341 | 106.60025 | 18519 ft | 362 kts | 340° |
| 2026-04-24 04:15 | 30.20745 | 106.59158 | 19141 ft | 365 kts | 340° |
| 2026-04-24 04:15 | 30.23149 | 106.58291 | 19755 ft | 368 kts | 340° |
| 2026-04-24 04:15 | 30.25604 | 106.57405 | 20366 ft | 371 kts | 340° |
| 2026-04-24 04:16 | 30.28070 | 106.56511 | 20972 ft | 374 kts | 339° |
| 2026-04-24 04:16 | 30.30562 | 106.55605 | 21558 ft | 377 kts | 339° |
| 2026-04-24 04:16 | 30.33073 | 106.54691 | 22147 ft | 379 kts | 339° |
| 2026-04-24 04:16 | 30.35537 | 106.53577 | 22707 ft | 379 kts | 330° |
| 2026-04-24 04:17 | 30.37753 | 106.51938 | 23254 ft | 379 kts | 319° |
| 2026-04-24 04:17 | 30.39724 | 106.49898 | 23778 ft | 381 kts | 315° |
| 2026-04-24 04:17 | 30.41675 | 106.47816 | 24244 ft | 383 kts | 315° |
| 2026-04-24 04:17 | 30.43639 | 106.45726 | 24716 ft | 384 kts | 315° |
| 2026-04-24 04:18 | 30.45611 | 106.43630 | 25188 ft | 385 kts | 315° |
| 2026-04-24 04:18 | 30.47591 | 106.41528 | 25655 ft | 387 kts | 315° |
| 2026-04-24 04:18 | 30.49571 | 106.39423 | 26119 ft | 388 kts | 315° |
| 2026-04-24 04:18 | 30.51566 | 106.37302 | 26594 ft | 389 kts | 315° |
| 2026-04-24 04:19 | 30.53563 | 106.35176 | 27044 ft | 390 kts | 315° |
| 2026-04-24 04:19 | 30.55567 | 106.33041 | 27497 ft | 392 kts | 315° |
| 2026-04-24 04:19 | 30.57573 | 106.30898 | 27938 ft | 393 kts | 315° |
| 2026-04-24 04:19 | 30.59533 | 106.28677 | 28365 ft | 393 kts | 309° |
| 2026-04-24 04:20 | 30.61165 | 106.26136 | 28782 ft | 394 kts | 302° |
| 2026-04-24 04:20 | 30.62141 | 106.24359 | 29063 ft | 395 kts | 302° |
| 2026-04-24 04:20 | 30.64118 | 106.20758 | 29607 ft | 396 kts | 301° |
| 2026-04-24 04:20 | 30.65105 | 106.18963 | 29879 ft | 397 kts | 302° |
| 2026-04-24 04:21 | 30.66614 | 106.16219 | 30251 ft | 399 kts | 302° |
| 2026-04-24 04:21 | 30.68596 | 106.12616 | 30654 ft | 401 kts | 302° |
| 2026-04-24 04:21 | 30.69613 | 106.10767 | 30849 ft | 403 kts | 302° |
| 2026-04-24 04:21 | 30.71126 | 106.08016 | 31157 ft | 404 kts | 301° |
| 2026-04-24 04:22 | 30.72409 | 106.05119 | 31557 ft | 403 kts | 292° |
| 2026-04-24 04:22 | 30.73182 | 106.02039 | 31967 ft | 404 kts | 282° |
| 2026-04-24 04:22 | 30.73444 | 105.98747 | 32386 ft | 406 kts | 272° |
| 2026-04-24 04:22 | 30.73182 | 105.95468 | 32790 ft | 409 kts | 265° |
| 2026-04-24 04:23 | 30.72724 | 105.92209 | 33176 ft | 408 kts | 265° |
| 2026-04-24 04:23 | 30.72266 | 105.88957 | 33571 ft | 407 kts | 265° |
| 2026-04-24 04:23 | 30.71810 | 105.85715 | 33992 ft | 406 kts | 265° |
| 2026-04-24 04:23 | 30.71353 | 105.82481 | 34367 ft | 405 kts | 264° |
| 2026-04-24 04:24 | 30.70894 | 105.79251 | 34722 ft | 404 kts | 264° |
| 2026-04-24 04:24 | 30.70433 | 105.76030 | 35079 ft | 404 kts | 264° |
| 2026-04-24 04:24 | 30.69971 | 105.72819 | 35429 ft | 403 kts | 264° |
| 2026-04-24 04:24 | 30.69512 | 105.69613 | 35769 ft | 402 kts | 265° |
| 2026-04-24 04:25 | 30.69056 | 105.66410 | 36075 ft | 402 kts | 264° |
| 2026-04-24 04:25 | 30.68603 | 105.63213 | 36146 ft | 401 kts | 264° |
| 2026-04-24 04:25 | 30.67692 | 105.56836 | 36150 ft | 399 kts | 264° |
| 2026-04-24 04:26 | 30.66785 | 105.50528 | 36165 ft | 399 kts | 264° |
| 2026-04-24 04:26 | 30.65868 | 105.44175 | 36160 ft | 399 kts | 264° |
| 2026-04-24 04:27 | 30.64944 | 105.37830 | 36162 ft | 399 kts | 264° |
| 2026-04-24 04:27 | 30.64534 | 105.31455 | 36157 ft | 396 kts | 270° |
| 2026-04-24 04:28 | 30.64259 | 105.25275 | 36152 ft | 396 kts | 270° |
| 2026-04-24 04:28 | 30.63976 | 105.18892 | 36153 ft | 396 kts | 270° |
| 2026-04-24 04:29 | 30.63693 | 105.12512 | 36152 ft | 396 kts | 270° |
| 2026-04-24 04:29 | 30.63403 | 105.06131 | 36153 ft | 396 kts | 270° |
| 2026-04-24 04:30 | 30.63106 | 104.99744 | 36157 ft | 396 kts | 270° |
| 2026-04-24 04:30 | 30.62806 | 104.93361 | 36157 ft | 396 kts | 270° |
| 2026-04-24 04:31 | 30.62507 | 104.86968 | 36160 ft | 396 kts | 270° |
| 2026-04-24 04:31 | 30.62205 | 104.80586 | 36159 ft | 396 kts | 270° |
| 2026-04-24 04:32 | 30.61898 | 104.74209 | 36158 ft | 396 kts | 269° |
| 2026-04-24 04:32 | 30.61584 | 104.67821 | 36159 ft | 396 kts | 269° |
| 2026-04-24 04:33 | 30.61274 | 104.61441 | 36158 ft | 396 kts | 269° |
| 2026-04-24 04:33 | 30.60963 | 104.55056 | 36160 ft | 396 kts | 269° |
| 2026-04-24 04:34 | 30.60401 | 104.48692 | 36167 ft | 400 kts | 259° |
| 2026-04-24 04:34 | 30.58533 | 104.42602 | 36166 ft | 404 kts | 253° |
| 2026-04-24 04:35 | 30.56548 | 104.36512 | 36167 ft | 404 kts | 254° |
| 2026-04-24 04:35 | 30.54569 | 104.30419 | 36167 ft | 403 kts | 254° |
| 2026-04-24 04:36 | 30.52586 | 104.24351 | 36174 ft | 403 kts | 254° |
| 2026-04-24 04:36 | 30.50545 | 104.18277 | 36174 ft | 404 kts | 252° |
| 2026-04-24 04:37 | 30.48148 | 104.12351 | 36179 ft | 406 kts | 249° |
| 2026-04-24 04:37 | 30.45615 | 104.06499 | 36181 ft | 406 kts | 249° |
| 2026-04-24 04:38 | 30.43125 | 104.00626 | 36183 ft | 406 kts | 249° |
| 2026-04-24 04:38 | 30.40682 | 103.94739 | 36176 ft | 405 kts | 250° |
| 2026-04-24 04:39 | 30.38246 | 103.88853 | 36175 ft | 405 kts | 250° |
| 2026-04-24 04:39 | 30.35806 | 103.82978 | 36168 ft | 405 kts | 250° |
| 2026-04-24 04:40 | 30.33359 | 103.77115 | 36160 ft | 404 kts | 249° |
| 2026-04-24 04:40 | 30.30947 | 103.71243 | 36148 ft | 402 kts | 254° |
| 2026-04-24 04:41 | 30.29807 | 103.65026 | 36148 ft | 393 kts | 268° |
| 2026-04-24 04:41 | 30.29333 | 103.58726 | 36154 ft | 393 kts | 268° |
| 2026-04-24 04:42 | 30.28837 | 103.52425 | 36154 ft | 393 kts | 268° |
| 2026-04-24 04:42 | 30.28333 | 103.46122 | 36158 ft | 393 kts | 268° |
| 2026-04-24 04:43 | 30.27833 | 103.39822 | 36160 ft | 394 kts | 268° |
| 2026-04-24 04:43 | 30.27327 | 103.33519 | 36159 ft | 393 kts | 268° |
| 2026-04-24 04:44 | 30.26814 | 103.27220 | 36163 ft | 393 kts | 267° |
| 2026-04-24 04:44 | 30.26290 | 103.20935 | 36166 ft | 393 kts | 267° |
| 2026-04-24 04:45 | 30.25765 | 103.14635 | 36167 ft | 393 kts | 267° |
| 2026-04-24 04:45 | 30.25234 | 103.08334 | 36164 ft | 393 kts | 267° |
| 2026-04-24 04:46 | 30.24708 | 103.02090 | 36166 ft | 393 kts | 267° |
| 2026-04-24 04:46 | 30.24174 | 102.95804 | 36160 ft | 393 kts | 266° |
| 2026-04-24 04:47 | 30.23631 | 102.89477 | 36172 ft | 394 kts | 267° |
| 2026-04-24 04:47 | 30.23124 | 102.83214 | 36173 ft | 394 kts | 267° |
| 2026-04-24 04:48 | 30.22623 | 102.76868 | 36179 ft | 394 kts | 267° |
| 2026-04-24 04:48 | 30.22117 | 102.70562 | 36190 ft | 394 kts | 267° |
| 2026-04-24 04:49 | 30.21626 | 102.64573 | 36191 ft | 395 kts | 267° |
| 2026-04-24 04:49 | 30.21131 | 102.58534 | 36182 ft | 392 kts | 267° |
| 2026-04-24 04:50 | 30.20610 | 102.52231 | 36184 ft | 395 kts | 267° |
| 2026-04-24 04:50 | 30.20082 | 102.45872 | 36174 ft | 395 kts | 267° |
| 2026-04-24 04:51 | 30.19574 | 102.39607 | 36150 ft | 394 kts | 267° |
| 2026-04-24 04:51 | 30.19100 | 102.33503 | 36150 ft | 394 kts | 269° |
| 2026-04-24 04:52 | 30.18637 | 102.27178 | 36207 ft | 399 kts | 269° |
| 2026-04-24 04:52 | 30.18531 | 102.23942 | 36353 ft | 405 kts | 271° |
| 2026-04-24 04:52 | 30.18518 | 102.20687 | 36632 ft | 406 kts | 268° |
| 2026-04-24 04:53 | 30.18332 | 102.17422 | 36819 ft | 408 kts | 268° |
| 2026-04-24 04:53 | 30.18120 | 102.14147 | 36989 ft | 410 kts | 269° |
| 2026-04-24 04:53 | 30.17937 | 102.10853 | 37123 ft | 413 kts | 268° |
| 2026-04-24 04:53 | 30.17752 | 102.07540 | 37399 ft | 412 kts | 270° |
| 2026-04-24 04:54 | 30.17765 | 102.04237 | 37741 ft | 410 kts | 274° |
| 2026-04-24 04:54 | 30.17875 | 102.00948 | 38095 ft | 409 kts | 272° |
| 2026-04-24 04:54 | 30.17835 | 101.97661 | 38424 ft | 408 kts | 271° |
| 2026-04-24 04:54 | 30.17768 | 101.94423 | 38728 ft | 399 kts | 269° |
| 2026-04-24 04:55 | 30.17628 | 101.91243 | 38852 ft | 395 kts | 269° |
| 2026-04-24 04:55 | 30.17507 | 101.88054 | 39058 ft | 398 kts | 271° |
| 2026-04-24 04:55 | 30.17505 | 101.84873 | 39263 ft | 391 kts | 270° |
| 2026-04-24 04:55 | 30.17417 | 101.81771 | 39041 ft | 383 kts | 269° |
| 2026-04-24 04:56 | 30.17289 | 101.78701 | 38591 ft | 381 kts | 269° |
| 2026-04-24 04:56 | 30.17131 | 101.75640 | 37914 ft | 382 kts | 269° |
| 2026-04-24 04:56 | 30.16958 | 101.72568 | 37235 ft | 385 kts | 268° |
| 2026-04-24 04:56 | 30.16783 | 101.69476 | 36548 ft | 387 kts | 268° |
| 2026-04-24 04:57 | 30.16610 | 101.66373 | 36234 ft | 389 kts | 268° |
| 2026-04-24 04:57 | 30.16441 | 101.63240 | 36158 ft | 391 kts | 268° |
| 2026-04-24 04:57 | 30.16106 | 101.56935 | 36176 ft | 395 kts | 268° |
| 2026-04-24 04:58 | 30.16083 | 101.50614 | 36174 ft | 393 kts | 276° |
| 2026-04-24 04:58 | 30.16627 | 101.44341 | 36164 ft | 391 kts | 276° |
| 2026-04-24 04:59 | 30.17155 | 101.38064 | 36158 ft | 393 kts | 276° |
| 2026-04-24 04:59 | 30.17681 | 101.31775 | 36149 ft | 394 kts | 276° |
| 2026-04-24 05:00 | 30.17942 | 101.28625 | 35963 ft | 394 kts | 281° |
| 2026-04-24 05:00 | 30.18206 | 101.25461 | 36115 ft | 396 kts | 281° |
| 2026-04-24 05:00 | 30.18742 | 101.19105 | 36121 ft | 397 kts | 281° |
| 2026-04-24 05:01 | 30.19268 | 101.12753 | 36151 ft | 397 kts | 281° |
| 2026-04-24 05:01 | 30.19773 | 101.06467 | 36105 ft | 394 kts | 281° |
| 2026-04-24 05:02 | 30.20295 | 101.00144 | 36106 ft | 396 kts | 281° |
| 2026-04-24 05:02 | 30.20819 | 100.93801 | 36109 ft | 396 kts | 281° |
| 2026-04-24 05:03 | 30.21328 | 100.87479 | 36100 ft | 394 kts | 281° |
| 2026-04-24 05:03 | 30.21829 | 100.81201 | 36088 ft | 395 kts | 280° |
| 2026-04-24 05:04 | 30.22260 | 100.75899 | 36075 ft | 396 kts | 281° |
| 2026-04-24 05:04 | 30.22849 | 100.68524 | 36087 ft | 397 kts | 281° |
| 2026-04-24 05:05 | 30.23263 | 100.63198 | 36086 ft | 396 kts | 280° |
| 2026-04-24 05:05 | 30.23754 | 100.56850 | 36105 ft | 398 kts | 280° |
| 2026-04-24 05:06 | 30.24328 | 100.49449 | 36106 ft | 398 kts | 280° |
| 2026-04-24 05:06 | 30.24742 | 100.44113 | 36104 ft | 397 kts | 281° |
| 2026-04-24 05:07 | 30.25229 | 100.37740 | 36121 ft | 398 kts | 280° |
| 2026-04-24 05:07 | 30.25715 | 100.31365 | 36120 ft | 399 kts | 280° |
| 2026-04-24 05:08 | 30.26202 | 100.24976 | 36123 ft | 398 kts | 280° |
| 2026-04-24 05:08 | 30.26676 | 100.18665 | 36118 ft | 398 kts | 279° |
| 2026-04-24 05:09 | 30.27148 | 100.12267 | 36134 ft | 401 kts | 280° |
| 2026-04-24 05:09 | 30.27627 | 100.05861 | 36131 ft | 399 kts | 279° |
| 2026-04-24 05:10 | 30.28099 | 99.99464 | 36138 ft | 400 kts | 280° |
| 2026-04-24 05:10 | 30.28640 | 99.93066 | 36148 ft | 400 kts | 281° |
| 2026-04-24 05:11 | 30.29246 | 99.86679 | 36157 ft | 399 kts | 281° |
| 2026-04-24 05:11 | 30.29841 | 99.80283 | 36162 ft | 400 kts | 281° |
| 2026-04-24 05:12 | 30.30413 | 99.73864 | 36172 ft | 401 kts | 281° |
| 2026-04-24 05:12 | 30.30971 | 99.67449 | 36178 ft | 401 kts | 281° |
| 2026-04-24 05:13 | 30.31813 | 99.57815 | 36172 ft | 401 kts | 281° |
| 2026-04-24 05:14 | 30.32382 | 99.51384 | 36168 ft | 402 kts | 281° |
| 2026-04-24 05:14 | 30.32944 | 99.44951 | 36167 ft | 402 kts | 281° |
| 2026-04-24 05:15 | 30.33489 | 99.38501 | 36160 ft | 403 kts | 280° |
| 2026-04-24 05:15 | 30.34031 | 99.32073 | 36130 ft | 401 kts | 281° |
| 2026-04-24 05:16 | 30.34587 | 99.25631 | 36130 ft | 403 kts | 281° |
| 2026-04-24 05:16 | 30.35147 | 99.19185 | 36097 ft | 402 kts | 281° |
| 2026-04-24 05:17 | 30.35678 | 99.12806 | 36112 ft | 400 kts | 280° |
| 2026-04-24 05:17 | 30.36210 | 99.06370 | 36098 ft | 402 kts | 279° |
| 2026-04-24 05:18 | 30.36746 | 98.99905 | 36103 ft | 404 kts | 280° |
| 2026-04-24 05:18 | 30.37299 | 98.93415 | 36012 ft | 406 kts | 280° |
| 2026-04-24 05:18 | 30.37567 | 98.90153 | 35756 ft | 407 kts | 280° |
| 2026-04-24 05:19 | 30.37833 | 98.86881 | 35492 ft | 408 kts | 279° |
| 2026-04-24 05:19 | 30.38096 | 98.83611 | 35245 ft | 408 kts | 279° |
| 2026-04-24 05:19 | 30.38361 | 98.80338 | 35000 ft | 408 kts | 279° |
| 2026-04-24 05:19 | 30.38630 | 98.77064 | 34758 ft | 409 kts | 279° |
| 2026-04-24 05:20 | 30.38898 | 98.73773 | 34521 ft | 411 kts | 279° |
| 2026-04-24 05:20 | 30.39164 | 98.70472 | 34287 ft | 412 kts | 279° |
| 2026-04-24 05:20 | 30.39431 | 98.67160 | 34051 ft | 413 kts | 279° |
| 2026-04-24 05:20 | 30.39696 | 98.63839 | 33786 ft | 414 kts | 279° |
| 2026-04-24 05:21 | 30.39962 | 98.60517 | 33524 ft | 416 kts | 279° |
| 2026-04-24 05:21 | 30.40230 | 98.57170 | 33256 ft | 418 kts | 279° |
| 2026-04-24 05:21 | 30.40499 | 98.53814 | 32999 ft | 419 kts | 279° |
| 2026-04-24 05:21 | 30.40768 | 98.50453 | 32739 ft | 419 kts | 279° |
| 2026-04-24 05:22 | 30.41038 | 98.47086 | 32482 ft | 420 kts | 279° |
| 2026-04-24 05:22 | 30.41306 | 98.43713 | 32226 ft | 421 kts | 279° |
| 2026-04-24 05:22 | 30.41568 | 98.40332 | 31974 ft | 421 kts | 278° |
| 2026-04-24 05:22 | 30.41825 | 98.36974 | 31724 ft | 420 kts | 278° |
| 2026-04-24 05:23 | 30.42082 | 98.33617 | 31470 ft | 418 kts | 278° |
| 2026-04-24 05:23 | 30.42341 | 98.30265 | 31223 ft | 416 kts | 278° |
| 2026-04-24 05:23 | 30.42596 | 98.26979 | 30979 ft | 415 kts | 278° |
| 2026-04-24 05:23 | 30.42853 | 98.23655 | 30736 ft | 413 kts | 278° |
| 2026-04-24 05:24 | 30.43108 | 98.20347 | 30495 ft | 412 kts | 278° |
| 2026-04-24 05:24 | 30.43366 | 98.17046 | 30256 ft | 410 kts | 279° |
| 2026-04-24 05:24 | 30.43650 | 98.13767 | 30011 ft | 409 kts | 279° |
| 2026-04-24 05:24 | 30.43948 | 98.10499 | 29733 ft | 407 kts | 279° |
| 2026-04-24 05:25 | 30.44254 | 98.07245 | 29451 ft | 406 kts | 279° |
| 2026-04-24 05:25 | 30.44559 | 98.04000 | 29184 ft | 404 kts | 279° |
| 2026-04-24 05:25 | 30.44857 | 98.00770 | 28910 ft | 403 kts | 279° |
| 2026-04-24 05:25 | 30.45147 | 97.97544 | 28648 ft | 402 kts | 279° |
| 2026-04-24 05:26 | 30.45430 | 97.94323 | 28381 ft | 401 kts | 279° |
| 2026-04-24 05:26 | 30.45706 | 97.91123 | 28113 ft | 394 kts | 279° |
| 2026-04-24 05:26 | 30.45973 | 97.88008 | 27894 ft | 383 kts | 279° |
| 2026-04-24 05:26 | 30.46234 | 97.84981 | 27763 ft | 372 kts | 279° |
| 2026-04-24 05:27 | 30.46407 | 97.82032 | 27631 ft | 364 kts | 272° |
| 2026-04-24 05:27 | 30.46130 | 97.79130 | 27426 ft | 362 kts | 262° |
| 2026-04-24 05:27 | 30.45360 | 97.76349 | 27162 ft | 365 kts | 251° |
| 2026-04-24 05:27 | 30.44231 | 97.73702 | 26926 ft | 366 kts | 248° |
| 2026-04-24 05:28 | 30.43088 | 97.71079 | 26666 ft | 364 kts | 248° |
| 2026-04-24 05:28 | 30.41947 | 97.68456 | 26350 ft | 365 kts | 248° |
| 2026-04-24 05:28 | 30.40813 | 97.65839 | 25987 ft | 362 kts | 249° |
| 2026-04-24 05:28 | 30.39703 | 97.63284 | 25611 ft | 347 kts | 248° |
| 2026-04-24 05:29 | 30.38628 | 97.60803 | 25260 ft | 343 kts | 249° |
| 2026-04-24 05:29 | 30.37493 | 97.58385 | 25054 ft | 339 kts | 242° |
| 2026-04-24 05:29 | 30.36024 | 97.56272 | 24940 ft | 336 kts | 231° |
| 2026-04-24 05:29 | 30.34240 | 97.54541 | 24783 ft | 336 kts | 219° |
| 2026-04-24 05:30 | 30.32262 | 97.53147 | 24637 ft | 330 kts | 216° |
| 2026-04-24 05:30 | 30.30303 | 97.51795 | 24480 ft | 325 kts | 217° |
| 2026-04-24 05:30 | 30.28386 | 97.50406 | 24229 ft | 323 kts | 223° |
| 2026-04-24 05:30 | 30.26780 | 97.48662 | 23994 ft | 312 kts | 236° |
| 2026-04-24 05:31 | 30.25576 | 97.46644 | 23852 ft | 299 kts | 248° |
| 2026-04-24 05:31 | 30.24775 | 97.44474 | 23644 ft | 289 kts | 259° |
| 2026-04-24 05:31 | 30.24367 | 97.42235 | 23377 ft | 282 kts | 269° |
| 2026-04-24 05:31 | 30.24334 | 97.39989 | 23025 ft | 278 kts | 279° |
| 2026-04-24 05:32 | 30.24666 | 97.37799 | 22638 ft | 275 kts | 288° |
| 2026-04-24 05:32 | 30.25346 | 97.35744 | 22252 ft | 274 kts | 298° |
| 2026-04-24 05:32 | 30.26345 | 97.33877 | 21925 ft | 273 kts | 308° |
| 2026-04-24 05:32 | 30.27625 | 97.32254 | 21666 ft | 273 kts | 318° |
| 2026-04-24 05:33 | 30.29136 | 97.30931 | 21410 ft | 273 kts | 328° |
| 2026-04-24 05:33 | 30.30794 | 97.29974 | 21294 ft | 266 kts | 336° |
| 2026-04-24 05:33 | 30.32520 | 97.29396 | 21108 ft | 250 kts | 346° |
| 2026-04-24 05:34 | 30.35652 | 97.28541 | 20855 ft | 214 kts | 338° |
| 2026-04-24 05:34 | 30.36975 | 97.27908 | 20733 ft | 198 kts | 332° |
| 2026-04-24 05:34 | 30.38157 | 97.27180 | 20446 ft | 191 kts | 327° |
| 2026-04-24 05:34 | 30.39271 | 97.26330 | 20012 ft | 194 kts | 322° |
| 2026-04-24 05:35 | 30.40340 | 97.25341 | 19552 ft | 199 kts | 319° |
| 2026-04-24 05:35 | 30.41414 | 97.24310 | 19090 ft | 201 kts | 319° |
| 2026-04-24 05:35 | 30.42489 | 97.23288 | 18641 ft | 200 kts | 319° |
| 2026-04-24 05:35 | 30.43553 | 97.22279 | 18704 ft | 192 kts | 319° |
| 2026-04-24 05:36 | 30.44619 | 97.21267 | 18857 ft | 205 kts | 319° |
| 2026-04-24 05:36 | 30.45753 | 97.20192 | 18987 ft | 217 kts | 319° |
| 2026-04-24 05:36 | 30.46956 | 97.19049 | 19111 ft | 231 kts | 320° |
| 2026-04-24 05:36 | 30.48230 | 97.17838 | 19221 ft | 244 kts | 320° |
| 2026-04-24 05:37 | 30.49569 | 97.16564 | 19344 ft | 253 kts | 320° |
| 2026-04-24 05:37 | 30.50947 | 97.15255 | 19572 ft | 258 kts | 320° |
| 2026-04-24 05:37 | 30.52344 | 97.13932 | 19811 ft | 262 kts | 320° |
| 2026-04-24 05:37 | 30.53786 | 97.12560 | 19958 ft | 274 kts | 320° |
| 2026-04-24 05:38 | 30.55290 | 97.11127 | 20072 ft | 285 kts | 320° |
| 2026-04-24 05:38 | 30.56847 | 97.09641 | 20196 ft | 295 kts | 320° |
| 2026-04-24 05:38 | 30.58462 | 97.08095 | 20323 ft | 307 kts | 320° |
| 2026-04-24 05:38 | 30.60137 | 97.06492 | 20449 ft | 317 kts | 320° |
| 2026-04-24 05:39 | 30.61820 | 97.04886 | 21098 ft | 304 kts | 320° |
| 2026-04-24 05:39 | 30.63423 | 97.03356 | 21798 ft | 295 kts | 320° |
| 2026-04-24 05:39 | 30.65006 | 97.01841 | 22037 ft | 294 kts | 320° |
| 2026-04-24 05:39 | 30.66572 | 97.00342 | 22101 ft | 290 kts | 320° |
| 2026-04-24 05:40 | 30.68123 | 96.98848 | 22105 ft | 289 kts | 318° |
| 2026-04-24 05:40 | 30.69478 | 96.97138 | 22106 ft | 288 kts | 307° |
| 2026-04-24 05:40 | 30.70510 | 96.95147 | 22102 ft | 289 kts | 296° |
| 2026-04-24 05:40 | 30.71174 | 96.92936 | 22101 ft | 291 kts | 287° |
| 2026-04-24 05:41 | 30.71687 | 96.90661 | 22106 ft | 291 kts | 287° |
| 2026-04-24 05:41 | 30.72206 | 96.88385 | 22106 ft | 291 kts | 287° |
| 2026-04-24 05:41 | 30.72731 | 96.86110 | 22114 ft | 291 kts | 287° |
| 2026-04-24 05:41 | 30.73249 | 96.83867 | 22110 ft | 291 kts | 287° |
| 2026-04-24 05:42 | 30.73778 | 96.81592 | 22101 ft | 291 kts | 287° |
| 2026-04-24 05:42 | 30.74306 | 96.79320 | 22090 ft | 290 kts | 287° |
| 2026-04-24 05:42 | 30.74831 | 96.77044 | 22078 ft | 290 kts | 287° |
| 2026-04-24 05:42 | 30.75289 | 96.74753 | 22072 ft | 294 kts | 277° |
| 2026-04-24 05:43 | 30.75030 | 96.72399 | 22104 ft | 302 kts | 253° |
| 2026-04-24 05:43 | 30.73931 | 96.70294 | 22100 ft | 311 kts | 231° |
| 2026-04-24 05:43 | 30.72177 | 96.68768 | 21877 ft | 323 kts | 207° |
| 2026-04-24 05:43 | 30.69979 | 96.68208 | 21751 ft | 329 kts | 181° |
| 2026-04-24 05:44 | 30.67736 | 96.68753 | 21622 ft | 334 kts | 155° |
| 2026-04-24 05:44 | 30.65707 | 96.70087 | 21500 ft | 336 kts | 149° |
| 2026-04-24 05:44 | 30.63707 | 96.71492 | 21379 ft | 342 kts | 149° |
| 2026-04-24 05:44 | 30.61590 | 96.72983 | 21218 ft | 365 kts | 149° |
| 2026-04-24 05:45 | 30.59407 | 96.74522 | 21191 ft | 370 kts | 149° |
| 2026-04-24 05:45 | 30.57199 | 96.76078 | 21199 ft | 372 kts | 149° |
| 2026-04-24 05:45 | 30.54980 | 96.77636 | 21199 ft | 373 kts | 150° |
| 2026-04-24 05:45 | 30.52761 | 96.79188 | 21202 ft | 373 kts | 150° |
| 2026-04-24 05:46 | 30.50541 | 96.80742 | 21211 ft | 373 kts | 150° |
| 2026-04-24 05:46 | 30.48319 | 96.82292 | 21209 ft | 373 kts | 150° |
| 2026-04-24 05:46 | 30.46094 | 96.83844 | 21190 ft | 373 kts | 150° |
| 2026-04-24 05:46 | 30.43878 | 96.85393 | 21206 ft | 373 kts | 150° |
| 2026-04-24 05:47 | 30.41656 | 96.86946 | 21199 ft | 373 kts | 150° |
| 2026-04-24 05:47 | 30.39431 | 96.88501 | 21192 ft | 373 kts | 150° |
| 2026-04-24 05:47 | 30.37209 | 96.90056 | 21193 ft | 373 kts | 150° |
| 2026-04-24 05:47 | 30.34985 | 96.91607 | 21196 ft | 373 kts | 150° |
| 2026-04-24 05:48 | 30.32742 | 96.93115 | 21187 ft | 369 kts | 156° |
| 2026-04-24 05:48 | 30.30350 | 96.93893 | 21183 ft | 349 kts | 178° |
| 2026-04-24 05:48 | 30.27981 | 96.93958 | 21172 ft | 332 kts | 183° |
| 2026-04-24 05:48 | 30.25693 | 96.93939 | 21179 ft | 327 kts | 184° |
| 2026-04-24 05:49 | 30.23467 | 96.93957 | 21143 ft | 315 kts | 177° |
| 2026-04-24 05:49 | 30.21418 | 96.94724 | 20908 ft | 309 kts | 148° |
| 2026-04-24 05:49 | 30.19884 | 96.96440 | 20845 ft | 308 kts | 121° |
| 2026-04-24 05:49 | 30.19119 | 96.98718 | 20771 ft | 304 kts | 94° |
| 2026-04-24 05:50 | 30.19069 | 97.01145 | 20703 ft | 303 kts | 89° |
| 2026-04-24 05:50 | 30.18637 | 97.03520 | 20632 ft | 304 kts | 112° |
| 2026-04-24 05:50 | 30.17994 | 97.04939 | 20615 ft | 297 kts | 120° |
| 2026-04-24 05:50 | 30.17084 | 97.07013 | 20524 ft | 282 kts | 110° |
| 2026-04-24 05:51 | 30.16514 | 97.09128 | 20453 ft | 269 kts | 101° |
| 2026-04-24 05:51 | 30.16233 | 97.11210 | 20389 ft | 255 kts | 92° |
| 2026-04-24 05:51 | 30.16184 | 97.13211 | 20328 ft | 244 kts | 85° |
| 2026-04-24 05:51 | 30.16338 | 97.15140 | 20276 ft | 239 kts | 78° |
| 2026-04-24 05:52 | 30.16668 | 97.17002 | 20231 ft | 236 kts | 71° |
| 2026-04-24 05:52 | 30.17173 | 97.18799 | 20178 ft | 234 kts | 64° |
| 2026-04-24 05:52 | 30.17841 | 97.20504 | 20132 ft | 232 kts | 58° |
| 2026-04-24 05:52 | 30.18657 | 97.22100 | 20081 ft | 229 kts | 52° |
| 2026-04-24 05:53 | 30.19611 | 97.23568 | 20036 ft | 228 kts | 46° |
| 2026-04-24 05:53 | 30.20697 | 97.24889 | 19991 ft | 226 kts | 38° |
| 2026-04-24 05:53 | 30.21863 | 97.26027 | 19943 ft | 211 kts | 32° |
| 2026-04-24 05:53 | 30.23021 | 97.26955 | 19902 ft | 196 kts | 26° |
| 2026-04-24 05:54 | 30.24189 | 97.27713 | 19859 ft | 190 kts | 21° |
| 2026-04-24 05:54 | 30.25387 | 97.28330 | 19822 ft | 188 kts | 15° |
| 2026-04-24 05:54 | 30.26616 | 97.28822 | 19704 ft | 186 kts | 10° |
| 2026-04-24 05:54 | 30.27862 | 97.29181 | 19486 ft | 183 kts | 6° |
| 2026-04-24 05:55 | 30.29119 | 97.29411 | 19277 ft | 183 kts | 1° |
| 2026-04-24 05:55 | 30.30382 | 97.29512 | 19027 ft | 180 kts | 356° |
| 2026-04-24 05:55 | 30.31634 | 97.29485 | 18793 ft | 179 kts | 352° |
| 2026-04-24 05:55 | 30.32866 | 97.29338 | 18547 ft | 177 kts | 347° |
| 2026-04-24 05:56 | 30.34069 | 97.29075 | 18305 ft | 175 kts | 342° |
| 2026-04-24 05:56 | 30.35245 | 97.28698 | 18044 ft | 175 kts | 338° |
| 2026-04-24 05:56 | 30.36384 | 97.28211 | 17785 ft | 174 kts | 334° |
| 2026-04-24 05:56 | 30.37467 | 97.27620 | 17559 ft | 171 kts | 329° |
| 2026-04-24 05:57 | 30.38495 | 97.26932 | 17320 ft | 170 kts | 324° |
| 2026-04-24 05:57 | 30.39465 | 97.26151 | 17092 ft | 169 kts | 320° |
| 2026-04-24 05:57 | 30.40379 | 97.25294 | 16870 ft | 169 kts | 318° |
| 2026-04-24 05:57 | 30.41288 | 97.24429 | 16662 ft | 170 kts | 318° |
| 2026-04-24 05:58 | 30.42197 | 97.23567 | 16463 ft | 169 kts | 318° |
| 2026-04-24 05:58 | 30.43116 | 97.22697 | 16273 ft | 170 kts | 319° |
| 2026-04-24 05:58 | 30.44031 | 97.21829 | 16037 ft | 169 kts | 319° |
| 2026-04-24 05:58 | 30.44938 | 97.20969 | 15861 ft | 168 kts | 318° |
| 2026-04-24 05:59 | 30.45851 | 97.20097 | 15748 ft | 171 kts | 319° |
| 2026-04-24 05:59 | 30.46768 | 97.19226 | 15606 ft | 172 kts | 318° |
| 2026-04-24 05:59 | 30.47701 | 97.18334 | 15349 ft | 173 kts | 319° |
| 2026-04-24 05:59 | 30.48632 | 97.17448 | 15134 ft | 173 kts | 319° |
| 2026-04-24 06:00 | 30.49552 | 97.16578 | 14846 ft | 169 kts | 319° |
| 2026-04-24 06:00 | 30.50458 | 97.15715 | 14564 ft | 167 kts | 320° |
| 2026-04-24 06:00 | 30.51353 | 97.14868 | 14355 ft | 166 kts | 319° |
| 2026-04-24 06:00 | 30.52233 | 97.14018 | 14245 ft | 165 kts | 318° |
| 2026-04-24 06:01 | 30.53116 | 97.13166 | 14129 ft | 165 kts | 321° |
| 2026-04-24 06:01 | 30.54012 | 97.12329 | 13992 ft | 165 kts | 319° |
| 2026-04-24 06:01 | 30.54861 | 97.11502 | 13966 ft | 150 kts | 320° |
| 2026-04-24 06:01 | 30.55566 | 97.10846 | 13964 ft | 106 kts | 319° |
| 2026-04-24 06:02 | 30.56000 | 97.10429 | 13962 ft | 56 kts | 319° |
| 2026-04-24 06:02 | 30.56238 | 97.10204 | 13964 ft | 41 kts | 321° |
| 2026-04-24 06:02 | 30.56454 | 97.10002 | 13964 ft | 39 kts | 320° |
| 2026-04-24 06:02 | 30.56660 | 97.09803 | 13963 ft | 38 kts | 320° |
| 2026-04-24 06:03 | 30.56860 | 97.09608 | 13966 ft | 37 kts | 321° |
| 2026-04-24 06:03 | 30.57034 | 97.09440 | 13965 ft | 15 kts | 305° |
| 2026-04-24 06:03 | 30.57073 | 97.09357 | 13966 ft | 10 kts | 330° |
| 2026-04-24 06:03 | 30.57092 | 97.09393 | 13966 ft | 7 kts | 114° |
| 2026-04-24 06:04 | 30.57054 | 97.09427 | 13964 ft | 7 kts | 143° |
| 2026-04-24 06:04 | 30.57012 | 97.09467 | 13963 ft | 9 kts | 139° |
| 2026-04-24 06:04 | 30.56956 | 97.09521 | 13967 ft | 12 kts | 143° |
| 2026-04-24 06:04 | 30.56877 | 97.09594 | 13964 ft | 17 kts | 141° |
| 2026-04-24 06:05 | 30.56776 | 97.09689 | 13966 ft | 21 kts | 141° |
| 2026-04-24 06:05 | 30.56656 | 97.09805 | 13964 ft | 24 kts | 139° |
| 2026-04-24 06:05 | 30.56526 | 97.09932 | 13964 ft | 25 kts | 141° |
| 2026-04-24 06:05 | 30.56391 | 97.10059 | 13963 ft | 25 kts | 141° |
| 2026-04-24 06:06 | 30.56255 | 97.10189 | 13963 ft | 25 kts | 140° |
| 2026-04-24 06:06 | 30.56119 | 97.10322 | 13964 ft | 26 kts | 140° |
| 2026-04-24 06:06 | 30.55980 | 97.10454 | 13963 ft | 26 kts | 143° |
| 2026-04-24 06:06 | 30.55837 | 97.10585 | 13964 ft | 26 kts | 139° |
| 2026-04-24 06:07 | 30.55697 | 97.10723 | 13966 ft | 27 kts | 140° |
| 2026-04-24 06:07 | 30.55555 | 97.10860 | 13962 ft | 27 kts | 140° |
| 2026-04-24 06:07 | 30.55449 | 97.10950 | 13958 ft | 10 kts | 173° |
| 2026-04-24 06:07 | 30.55402 | 97.10896 | 13959 ft | 11 kts | 235° |
| 2026-04-24 06:08 | 30.55353 | 97.10827 | 13956 ft | 12 kts | 230° |
| 2026-04-24 06:08 | 30.55302 | 97.10755 | 13959 ft | 10 kts | 230° |
| 2026-04-24 06:08 | 30.55252 | 97.10771 | 13961 ft | 9 kts | 134° |
| 2026-04-24 06:08 | 30.55210 | 97.10792 | 13958 ft | 6 kts | 194° |
| 2026-04-24 06:09 | 30.55198 | 97.10768 | 13960 ft | 3 kts | 231° |
| 2026-04-24 06:09 | 30.55187 | 97.10754 | 13960 ft | 1 kts | 229° |
| 2026-04-24 06:09 | 30.55186 | 97.10753 | 13960 ft | 0 kts | 230° |